Change the Weather History Date:

Wednesday, February 8, 2012

  Actual Average (KDTO) Record (KDTO)
Temperature  
Mean Temperature 37 °F -  
Max Temperature 41 °F 55 °F 75 °F (1999)
Min Temperature 33 °F 34 °F 27 °F (2003)
Degree Days  
Heating Degree Days 28    
Moisture  
Dew Point 32 °F    
Average Humidity 79    
Maximum Humidity 93    
Minimum Humidity 65    
Precipitation  
Precipitation 0.00 in - - ()
Sea Level Pressure  
Sea Level Pressure 30.42 in    
Wind  
Wind Speed 7 mph (NNW)    
Max Wind Speed 13 mph    
Max Gust Speed 17 mph    
Visibility 10 miles    
Events      
Averages and records for this station are not official NWS values.
T = Trace of Precipitation, MM = Missing Value Source: NWS Daily Summary

Daily Weather History Graph

Daily Weather History Graph

Search for Another Location

Airport or City:

Trip Planner

Search our weather history database for the weather conditions in past years. The results will help you decide how hot, cold, wet, or windy it might be!

Date:

Astronomy

Feb. 08, 2012 Rise Set
Actual Time 7:20 AM CST 6:08 PM CST
Civil Twilight 6:55 AM CST 6:34 PM CST
Nautical Twilight 6:25 AM CST 7:03 PM CST
Astronomical Twilight 5:56 AM CST 7:32 PM CST
Moon 7:22 PM CST (2/8) 7:30 AM CST (2/8)
Length of Visible Light 11h 38m
Length of Day
10h 47m
Full, 99% of the Moon is Illuminated
Feb 8
Full
Feb 14
Last Quarter
Feb 21
New
Feb 29
First Quarter
Mar 8
Full

Hourly Weather History & Observations

Time (CST) Temp. Windchill Dew Point Humidity Pressure Visibility Wind Dir Wind Speed Gust Speed Precip Events Conditions
12:15 AM 39.2 °F 33.6 °F 35.6 °F 87% 30.40 in 10.0 mi NNW 8.1 mph - N/A   Scattered Clouds
12:35 AM 39.2 °F 33.0 °F 35.6 °F 87% 30.41 in 10.0 mi NNW 9.2 mph - N/A   Scattered Clouds
12:55 AM 37.4 °F 30.8 °F 33.8 °F 87% 30.41 in 10.0 mi NNW 9.2 mph 16.1 mph N/A   Clear
1:15 AM 37.4 °F 32.1 °F 35.6 °F 93% 30.41 in 7.0 mi NNW 6.9 mph - N/A   Mostly Cloudy
1:35 AM 37.4 °F 31.4 °F 33.8 °F 87% 30.41 in 10.0 mi NNW 8.1 mph - N/A   Overcast
1:55 AM 37.4 °F 29.8 °F 33.8 °F 87% 30.41 in 10.0 mi NNW 11.5 mph 18.4 mph N/A   Overcast
2:15 AM 37.4 °F 30.3 °F 33.8 °F 87% 30.41 in 10.0 mi NNW 10.4 mph 17.3 mph N/A   Overcast
2:35 AM 37.4 °F 30.3 °F 33.8 °F 87% 30.41 in 10.0 mi NNW 10.4 mph 16.1 mph N/A   Overcast
2:55 AM 37.4 °F 30.3 °F 32.0 °F 81% 30.41 in 10.0 mi NNW 10.4 mph 17.3 mph N/A   Overcast
3:15 AM 37.4 °F 30.3 °F 32.0 °F 81% 30.41 in 10.0 mi NNW 10.4 mph - N/A   Overcast
3:35 AM 37.4 °F 29.3 °F 32.0 °F 81% 30.41 in 10.0 mi NNW 12.7 mph 16.1 mph N/A   Overcast
3:55 AM 37.4 °F 31.4 °F 32.0 °F 81% 30.42 in 10.0 mi NNW 8.1 mph - N/A   Overcast
4:15 AM 37.4 °F 29.8 °F 32.0 °F 81% 30.42 in 10.0 mi NNW 11.5 mph 17.3 mph N/A   Overcast
4:35 AM 37.4 °F 32.1 °F 32.0 °F 81% 30.43 in 10.0 mi NNW 6.9 mph - N/A   Overcast
4:55 AM 35.6 °F 29.2 °F 32.0 °F 87% 30.43 in 10.0 mi NNW 8.1 mph - N/A   Overcast
5:15 AM 35.6 °F 27.5 °F 32.0 °F 87% 30.44 in 10.0 mi NNW 11.5 mph - N/A   Overcast
5:35 AM 35.6 °F 29.2 °F 32.0 °F 87% 30.44 in 10.0 mi NNW 8.1 mph - N/A   Overcast
5:55 AM 35.6 °F 29.2 °F 32.0 °F 87% 30.45 in 10.0 mi NW 8.1 mph - N/A   Overcast
6:15 AM 35.6 °F 29.2 °F 32.0 °F 87% 30.45 in 10.0 mi NNW 8.1 mph - N/A   Overcast
6:35 AM 35.6 °F 28.6 °F 32.0 °F 87% 30.45 in 10.0 mi NNW 9.2 mph - N/A   Overcast
6:55 AM 35.6 °F 27.5 °F 32.0 °F 87% 30.46 in 10.0 mi NNW 11.5 mph 16.1 mph N/A   Overcast
7:15 AM 35.6 °F 28.0 °F 32.0 °F 87% 30.46 in 10.0 mi NNW 10.4 mph - N/A   Overcast
7:35 AM 35.6 °F 30.7 °F 32.0 °F 87% 30.47 in 10.0 mi North 5.8 mph - N/A   Overcast
7:55 AM 35.6 °F 29.9 °F 30.2 °F 81% 30.48 in 10.0 mi North 6.9 mph - N/A   Overcast
8:15 AM 35.6 °F 29.2 °F 32.0 °F 87% 30.49 in 10.0 mi NNW 8.1 mph - N/A   Overcast
8:35 AM 35.6 °F 29.9 °F 30.2 °F 81% 30.49 in 10.0 mi NW 6.9 mph - N/A   Overcast
8:55 AM 35.6 °F 29.9 °F 32.0 °F 87% 30.48 in 10.0 mi NNW 6.9 mph - N/A   Overcast
9:15 AM 35.6 °F 29.9 °F 32.0 °F 87% 30.49 in 10.0 mi North 6.9 mph - N/A   Overcast
9:35 AM 35.6 °F 30.7 °F 32.0 °F 87% 30.49 in 10.0 mi NNW 5.8 mph - N/A   Overcast
9:55 AM 35.6 °F 29.9 °F 32.0 °F 87% 30.49 in 10.0 mi NNW 6.9 mph - N/A   Overcast
10:15 AM 35.6 °F 32.8 °F 32.0 °F 87% 30.50 in 10.0 mi NNE 3.5 mph - N/A   Overcast
10:35 AM 37.4 °F - 32.0 °F 81% 30.51 in 10.0 mi Calm Calm - N/A   Overcast
10:55 AM 37.4 °F 34.9 °F 32.0 °F 81% 30.51 in 10.0 mi West 3.5 mph - N/A   Overcast
11:15 AM 37.4 °F 33.8 °F 32.0 °F 81% 30.50 in 10.0 mi North 4.6 mph - N/A   Overcast
11:35 AM 37.4 °F 34.9 °F 32.0 °F 81% 30.49 in 10.0 mi NNW 3.5 mph - N/A   Overcast
11:55 AM 37.4 °F - 32.0 °F 81% 30.49 in 10.0 mi Calm Calm - N/A   Overcast
12:15 PM 39.2 °F 35.9 °F 32.0 °F 75% 30.48 in 10.0 mi WNW 4.6 mph - N/A   Overcast
12:35 PM 39.2 °F 35.0 °F 32.0 °F 75% 30.47 in 10.0 mi WNW 5.8 mph - N/A   Overcast
12:55 PM 41.0 °F 36.4 °F 32.0 °F 70% 30.46 in 10.0 mi NW 6.9 mph - N/A   Overcast
1:15 PM 41.0 °F 37.1 °F 30.2 °F 65% 30.44 in 10.0 mi NW 5.8 mph - N/A   Mostly Cloudy
1:35 PM 41.0 °F 37.1 °F 32.0 °F 70% 30.43 in 10.0 mi WNW 5.8 mph - N/A   Mostly Cloudy
1:55 PM 41.0 °F 36.4 °F 30.2 °F 65% 30.42 in 10.0 mi NW 6.9 mph - N/A   Mostly Cloudy
2:15 PM 41.0 °F 39.0 °F 30.2 °F 65% 30.41 in 10.0 mi NW 3.5 mph - N/A   Mostly Cloudy
2:35 PM 41.0 °F 36.4 °F 30.2 °F 65% 30.41 in 10.0 mi NNW 6.9 mph - N/A   Overcast
2:55 PM 41.0 °F 37.1 °F 30.2 °F 65% 30.40 in 10.0 mi West 5.8 mph - N/A   Mostly Cloudy
3:15 PM 41.0 °F - 30.2 °F 65% 30.40 in 10.0 mi Calm Calm - N/A   Mostly Cloudy
3:35 PM 41.0 °F - 30.2 °F 65% 30.39 in 10.0 mi Calm Calm - N/A   Mostly Cloudy
3:55 PM 41.0 °F 38.0 °F 30.2 °F 65% 30.39 in 10.0 mi NNW 4.6 mph - N/A   Mostly Cloudy
4:15 PM 41.0 °F - 30.2 °F 65% 30.38 in 10.0 mi Calm Calm - N/A   Overcast
4:35 PM 41.0 °F - 30.2 °F 65% 30.37 in 10.0 mi Calm Calm - N/A   Scattered Clouds
4:55 PM 41.0 °F - 30.2 °F 65% 30.36 in 10.0 mi Calm Calm - N/A   Scattered Clouds
5:15 PM 41.0 °F - 30.2 °F 65% 30.36 in 10.0 mi Calm Calm - N/A   Scattered Clouds
5:35 PM 41.0 °F - 30.2 °F 65% 30.35 in 10.0 mi Calm Calm - N/A   Clear
5:55 PM 41.0 °F - 30.2 °F 65% 30.34 in 10.0 mi Calm Calm - N/A   Clear
6:15 PM 41.0 °F - 30.2 °F 65% 30.34 in 10.0 mi Calm Calm - N/A   Clear
6:35 PM 39.2 °F - 30.2 °F 70% 30.34 in 10.0 mi Calm Calm - N/A   Clear
6:55 PM 39.2 °F - 30.2 °F 70% 30.34 in 10.0 mi Calm Calm - N/A   Clear
7:15 PM 37.4 °F 33.8 °F 30.2 °F 75% 30.34 in 10.0 mi East 4.6 mph - N/A   Clear
7:35 PM 37.4 °F 34.9 °F 30.2 °F 75% 30.35 in 10.0 mi ESE 3.5 mph - N/A   Clear
7:55 PM 37.4 °F 34.9 °F 30.2 °F 75% 30.35 in 10.0 mi SE 3.5 mph - N/A   Clear
8:15 PM 33.8 °F - 30.2 °F 87% 30.36 in 10.0 mi Calm Calm - N/A   Clear
8:35 PM 35.6 °F 32.8 °F 30.2 °F 81% 30.36 in 10.0 mi East 3.5 mph - N/A   Clear
8:55 PM 35.6 °F 31.7 °F 30.2 °F 81% 30.36 in 10.0 mi ENE 4.6 mph - N/A   Clear
9:15 PM 33.8 °F 29.6 °F 30.2 °F 87% 30.36 in 10.0 mi East 4.6 mph - N/A   Clear
9:35 PM 33.8 °F 29.6 °F 30.2 °F 87% 30.36 in 10.0 mi East 4.6 mph - N/A   Clear
9:55 PM 33.8 °F 29.6 °F 30.2 °F 87% 30.36 in 10.0 mi East 4.6 mph - N/A   Clear
10:15 PM 33.8 °F 29.6 °F 30.2 °F 87% 30.36 in 10.0 mi East 4.6 mph - N/A   Clear
10:35 PM 33.8 °F 30.8 °F 30.2 °F 87% 30.36 in 7.0 mi East 3.5 mph - N/A   Clear
10:55 PM 32.0 °F 28.7 °F 30.2 °F 93% 30.35 in 10.0 mi ENE 3.5 mph - N/A   Clear
11:15 PM 32.0 °F 28.7 °F 30.2 °F 93% 30.36 in 10.0 mi East 3.5 mph - N/A   Clear
11:35 PM 32.0 °F 27.5 °F 30.2 °F 93% 30.36 in 10.0 mi East 4.6 mph - N/A   Clear
11:55 PM 32.0 °F 27.5 °F 30.2 °F 93% 30.35 in 10.0 mi ESE 4.6 mph - N/A   Clear